Time;durP1;ratioP1;P1;durP2;ratioP2;P2;SDS_P1;SDS_P2;PMS_P1;PMS_P2;Temp;Humidity;BMP_temperature;BMP_pressure;BME280_temperature;BME280_humidity;BME280_pressure;Samples;Min_cycle;Max_cycle;Signal;HPM_P1;HPM_P2
2023/10/25 00:01:40;;;;;;;16.40;10.27;;;;;;;7.80;100.00;100168.03;6071318;23;20021;-79
2023/10/25 00:04:06;;;;;;;15.88;10.27;;;;;;;7.83;100.00;100167.50;6099186;23;20013;-72
2023/10/25 00:06:32;;;;;;;14.00;9.60;;;;;;;7.78;100.00;100172.81;6098473;23;20009;-78
2023/10/25 00:08:58;;;;;;;15.80;9.73;;;;;;;7.76;100.00;100166.94;6098101;23;20071;-77
2023/10/25 00:11:24;;;;;;;14.43;9.65;;;;;;;7.75;100.00;100172.56;6097464;23;20017;-77
2023/10/25 00:13:50;;;;;;;15.48;9.35;;;;;;;7.73;100.00;100175.47;6047635;23;20014;-79
2023/10/25 00:16:16;;;;;;;14.55;9.85;;;;;;;7.72;100.00;100178.38;6089090;23;20020;-75
2023/10/25 00:18:42;;;;;;;14.98;9.85;;;;;;;7.67;100.00;100176.53;6089783;23;20366;-76
2023/10/25 00:21:09;;;;;;;12.43;9.23;;;;;;;7.62;100.00;100174.66;6123020;23;20421;-75
2023/10/25 00:23:34;;;;;;;13.02;8.25;;;;;;;7.59;100.00;100177.06;6146278;23;20021;-75
2023/10/25 00:26:00;;;;;;;16.52;9.52;;;;;;;7.53;100.00;100176.25;6120336;23;20019;-77
2023/10/25 00:28:26;;;;;;;12.48;9.25;;;;;;;7.48;100.00;100178.09;6096267;23;20383;-77
2023/10/25 00:30:51;;;;;;;12.98;8.52;;;;;;;7.45;100.00;100171.44;6096529;23;20455;-77
2023/10/25 00:33:17;;;;;;;13.32;9.27;;;;;;;7.43;100.00;100173.53;6096259;23;20014;-77
2023/10/25 00:35:42;;;;;;;11.88;8.32;;;;;;;7.40;100.00;100168.75;6072967;23;20953;-79
2023/10/25 00:38:09;;;;;;;14.52;10.15;;;;;;;7.33;100.00;100171.66;6121969;23;20139;-76
2023/10/25 00:40:35;;;;;;;16.35;10.63;;;;;;;7.31;100.00;100178.28;6119497;23;20131;-76
2023/10/25 00:43:19;;;;;;;13.60;9.48;;;;;;;7.26;100.00;100176.44;6121939;23;20596;-78
2023/10/25 00:46:10;;;;;;;14.50;9.25;;;;;;;7.24;100.00;100178.53;6095537;23;20013;-77
2023/10/25 00:48:36;;;;;;;16.00;9.63;;;;;;;7.20;100.00;100179.34;6097133;23;20064;-76
2023/10/25 00:51:02;;;;;;;15.02;9.98;;;;;;;7.16;100.00;100181.69;6121777;23;20348;-76
2023/10/25 00:53:31;;;;;;;16.08;9.43;;;;;;;7.15;100.00;100179.31;6072565;23;20017;-76
2023/10/25 00:56:00;;;;;;;14.68;9.88;;;;;;;7.07;100.00;100176.09;6122000;23;20016;-74
2023/10/25 00:58:26;;;;;;;16.55;9.90;;;;;;;7.02;100.00;100175.25;6121312;23;20041;-75
2023/10/25 01:00:55;;;;;;;15.80;10.18;;;;;;;7.01;100.00;100190.44;6147280;23;20024;-76
2023/10/25 01:03:21;;;;;;;17.73;9.95;;;;;;;6.97;100.00;100175.22;6121058;23;20093;-80
2023/10/25 01:05:47;;;;;;;20.90;11.07;;;;;;;6.92;100.00;100184.00;6095009;23;20017;-74
2023/10/25 01:08:17;;;;;;;23.50;12.02;;;;;;;6.94;100.00;100186.41;6120926;23;20065;-75
2023/10/25 01:10:44;;;;;;;21.30;11.55;;;;;;;6.93;100.00;100180.28;6120247;23;20006;-75
2023/10/25 01:13:09;;;;;;;22.83;13.13;;;;;;;6.94;100.00;100189.06;6147152;23;20010;-74
2023/10/25 01:15:35;;;;;;;24.83;13.30;;;;;;;6.97;100.00;100183.22;6120163;23;20017;-74
2023/10/25 01:18:02;;;;;;;29.05;15.57;;;;;;;7.04;100.00;100189.09;6147508;23;20774;-72
2023/10/25 01:20:31;;;;;;;31.02;14.10;;;;;;;7.08;100.00;100183.00;6095949;23;20052;-75
2023/10/25 01:22:57;;;;;;;26.95;14.20;;;;;;;7.11;100.00;100182.50;6121269;23;20031;-76
2023/10/25 01:25:23;;;;;;;31.63;15.68;;;;;;;7.17;100.00;100177.97;6147498;23;20778;-75
2023/10/25 01:27:48;;;;;;;25.92;13.52;;;;;;;7.14;100.00;100173.19;6072203;23;20732;-74
2023/10/25 01:30:14;;;;;;;25.00;13.10;;;;;;;7.10;100.00;100161.44;6072593;23;20025;-75
2023/10/25 01:32:40;;;;;;;22.60;13.20;;;;;;;7.10;100.00;100162.22;6120383;23;20045;-76
2023/10/25 01:35:07;;;;;;;19.95;11.80;;;;;;;7.06;100.00;100157.72;6096878;23;20206;-78
2023/10/25 01:37:32;;;;;;;21.15;12.65;;;;;;;7.03;100.00;100158.22;6095677;23;20014;-73
2023/10/25 01:39:58;;;;;;;24.50;12.30;;;;;;;6.98;100.00;100160.88;6121152;23;20156;-74
2023/10/25 01:42:24;;;;;;;19.30;11.68;;;;;;;6.93;100.00;100161.66;6096803;23;20684;-74
2023/10/25 01:44:49;;;;;;;21.23;12.40;;;;;;;6.89;100.00;100165.88;6071611;23;20455;-75
2023/10/25 01:47:15;;;;;;;24.42;13.02;;;;;;;6.83;100.00;100157.06;6096706;23;20017;-75
2023/10/25 01:49:43;;;;;;;21.50;11.65;;;;;;;6.82;100.00;100168.75;6120853;23;20017;-76
2023/10/25 01:52:08;;;;;;;22.35;13.15;;;;;;;6.79;100.00;100166.63;6096912;23;20123;-75
2023/10/25 01:54:34;;;;;;;17.73;11.02;;;;;;;6.77;100.00;100168.75;6120449;23;20861;-76
2023/10/25 01:57:00;;;;;;;17.63;9.85;;;;;;;6.74;100.00;100165.81;6121310;23;20349;-75
2023/10/25 01:59:26;;;;;;;18.23;10.65;;;;;;;6.71;100.00;100164.47;6047951;23;20451;-74
2023/10/25 02:01:52;;;;;;;16.60;9.85;;;;;;;6.71;100.00;100159.16;6096796;23;20019;-75
2023/10/25 02:04:17;;;;;;;16.90;9.82;;;;;;;6.70;100.00;100157.50;6121109;23;20016;-76
2023/10/25 02:06:43;;;;;;;17.83;10.63;;;;;;;6.64;100.00;100153.25;6071104;23;20401;-76
2023/10/25 02:09:09;;;;;;;18.52;10.30;;;;;;;6.62;100.00;100152.69;6120270;23;20009;-75
2023/10/25 02:11:34;;;;;;;17.90;10.93;;;;;;;6.61;100.00;100160.94;6095082;23;20129;-74
2023/10/25 02:14:00;;;;;;;19.50;9.93;;;;;;;6.60;100.00;100162.78;6146523;23;20028;-77
2023/10/25 02:16:26;;;;;;;18.15;10.93;;;;;;;6.60;100.00;100162.78;6095234;23;20022;-76
2023/10/25 02:18:54;;;;;;;18.35;11.18;;;;;;;6.58;100.00;100159.59;6095771;23;20018;-77
2023/10/25 02:21:21;;;;;;;19.08;10.30;;;;;;;6.59;100.00;100153.22;6072531;23;20371;-80
2023/10/25 02:23:46;;;;;;;18.80;10.48;;;;;;;6.56;100.00;100154.50;6072571;23;20024;-76
2023/10/25 02:26:12;;;;;;;19.88;10.25;;;;;;;6.57;100.00;100165.97;6096051;23;20017;-77
2023/10/25 02:28:38;;;;;;;22.73;11.88;;;;;;;6.61;100.00;100160.94;6119377;23;20072;-76
2023/10/25 02:31:04;;;;;;;19.80;10.60;;;;;;;6.63;100.00;100158.81;6120051;23;20186;-77
2023/10/25 02:33:29;;;;;;;20.77;11.50;;;;;;;6.64;100.00;100155.91;6120183;23;20028;-77
2023/10/25 02:35:55;;;;;;;18.75;11.68;;;;;;;6.63;100.00;100162.28;6120348;23;20754;-76
2023/10/25 02:38:21;;;;;;;22.45;12.55;;;;;;;6.64;100.00;100161.25;6096119;23;20645;-77
2023/10/25 02:40:46;;;;;;;19.30;10.68;;;;;;;6.64;100.00;100158.56;6068699;23;20024;-77
2023/10/25 02:43:12;;;;;;;22.92;11.93;;;;;;;6.68;100.00;100154.31;6119206;23;20399;-75
2023/10/25 02:45:38;;;;;;;21.27;11.50;;;;;;;6.70;100.00;100162.84;6118448;23;20092;-76
2023/10/25 02:48:11;;;;;;;25.60;12.60;;;;;;;6.70;100.00;100152.19;6119907;23;20029;-75
2023/10/25 02:50:37;;;;;;;20.77;11.88;;;;;;;6.69;100.00;100165.75;6118659;23;20009;-75
2023/10/25 02:53:03;;;;;;;18.27;10.40;;;;;;;6.64;100.00;100157.75;6119774;23;20089;-76
2023/10/25 02:55:29;;;;;;;22.02;11.80;;;;;;;6.62;100.00;100166.00;6095120;23;20072;-75
2023/10/25 02:57:55;;;;;;;22.65;11.20;;;;;;;6.64;100.00;100166.56;6145684;23;20013;-77
2023/10/25 03:00:21;;;;;;;19.02;11.57;;;;;;;6.62;100.00;100165.19;6094302;23;20023;-78
2023/10/25 03:02:48;;;;;;;22.38;11.50;;;;;;;6.63;100.00;100167.59;6095833;23;20013;-75
2023/10/25 03:05:13;;;;;;;23.33;12.50;;;;;;;6.66;100.00;100160.97;6120069;23;20456;-76
2023/10/25 03:07:39;;;;;;;24.67;12.55;;;;;;;6.67;100.00;100166.03;6146223;23;20013;-75
2023/10/25 03:10:05;;;;;;;25.92;12.23;;;;;;;6.70;100.00;100162.03;6094485;23;20037;-76
2023/10/25 03:12:32;;;;;;;28.65;13.57;;;;;;;6.72;100.00;100166.06;6119002;23;20523;-75
2023/10/25 03:14:58;;;;;;;29.65;12.82;;;;;;;6.75;100.00;100165.53;6094607;23;20018;-74
2023/10/25 03:17:24;;;;;;;26.95;13.27;;;;;;;6.78;100.00;100169.56;6095849;23;20018;-74
2023/10/25 03:19:50;;;;;;;25.83;12.50;;;;;;;6.81;100.00;100163.72;6119461;23;20017;-76
2023/10/25 03:22:15;;;;;;;34.05;13.02;;;;;;;6.80;100.00;100165.56;6119491;23;20071;-73
2023/10/25 03:24:41;;;;;;;31.42;12.95;;;;;;;6.78;100.00;100165.03;6119086;23;20017;-76
2023/10/25 03:27:07;;;;;;;31.27;13.90;;;;;;;6.78;100.00;100165.03;6094910;23;20014;-77
2023/10/25 03:29:39;;;;;;;31.05;13.27;;;;;;;6.81;100.00;100172.50;6119534;23;20465;-75
2023/10/25 03:32:06;;;;;;;26.77;13.07;;;;;;;6.82;100.00;100181.28;6095033;23;20052;-75
2023/10/25 03:34:31;;;;;;;33.40;14.18;;;;;;;6.83;100.00;100165.03;6093926;23;20021;-75
2023/10/25 03:36:57;;;;;;;29.05;12.82;;;;;;;6.84;100.00;100163.19;6093664;23;20463;-74
2023/10/25 03:39:23;;;;;;;32.20;13.55;;;;;;;6.85;100.00;100164.81;6118270;23;20459;-74
2023/10/25 03:41:48;;;;;;;27.02;12.13;;;;;;;6.86;100.00;100165.59;6118904;23;20009;-74
2023/10/25 03:44:14;;;;;;;27.45;12.20;;;;;;;6.87;100.00;100167.19;6118684;23;20025;-74
2023/10/25 03:46:40;;;;;;;24.95;12.30;;;;;;;6.84;100.00;100157.84;6144335;23;20017;-75
2023/10/25 03:49:07;;;;;;;27.25;12.27;;;;;;;6.82;100.00;100163.44;6095320;23;20041;-75
2023/10/25 03:51:33;;;;;;;24.98;12.23;;;;;;;6.81;100.00;100159.19;6118949;23;20006;-74
2023/10/25 03:53:58;;;;;;;22.23;11.60;;;;;;;6.78;100.00;100156.25;6116596;23;20017;-77
2023/10/25 03:56:24;;;;;;;21.27;11.13;;;;;;;6.77;100.00;100157.28;6144496;23;20456;-79
2023/10/25 03:58:50;;;;;;;24.88;11.82;;;;;;;6.75;100.00;100154.09;6094506;23;20009;-75
2023/10/25 04:01:16;;;;;;;27.63;13.20;;;;;;;6.78;100.00;100159.72;6118770;23;20019;-77
2023/10/25 04:03:41;;;;;;;28.63;13.77;;;;;;;6.80;100.00;100154.94;6070584;23;20515;-77
2023/10/25 04:06:08;;;;;;;26.48;12.30;;;;;;;6.81;100.00;100153.84;6094532;23;20079;-77
2023/10/25 04:08:36;;;;;;;29.42;13.40;;;;;;;6.82;100.00;100157.31;6119197;23;20068;-76
2023/10/25 04:11:02;;;;;;;;;;;;;;;6.83;100.00;100157.06;6118841;23;20126;-76
2023/10/25 04:13:28;;;;;;;24.58;12.40;;;;;;;6.84;100.00;100148.03;6128591;23;20391;-77
2023/10/25 04:16:05;;;;;;;25.90;12.30;;;;;;;6.86;100.00;100149.63;6118037;23;20039;-76
2023/10/25 04:18:32;;;;;;;29.27;12.93;;;;;;;6.88;100.00;100147.50;6146318;23;20013;-76
2023/10/25 04:21:00;;;;;;;26.70;12.10;;;;;;;6.82;100.00;100139.50;6118035;23;20105;-76
2023/10/25 04:23:30;;;;;;;25.83;11.43;;;;;;;6.82;100.00;100142.16;6119635;23;20098;-77
2023/10/25 04:26:06;;;;;;;24.85;12.50;;;;;;;6.80;100.00;100148.81;6119134;23;20071;-76
2023/10/25 04:28:33;;;;;;;21.67;11.10;;;;;;;6.76;100.00;100148.50;6120001;23;20460;-76
2023/10/25 04:30:58;;;;;;;;;;;;;;;6.71;100.00;100148.50;6118397;23;20227;-77
2023/10/25 04:33:24;;;;;;;21.65;10.65;;;;;;;6.67;100.00;100146.59;6143653;23;19908;-77
2023/10/25 04:35:50;;;;;;;22.73;10.77;;;;;;;6.59;100.00;100144.44;6142509;23;20064;-76
2023/10/25 04:38:16;;;;;;;22.33;11.48;;;;;;;6.56;100.00;100135.88;6118702;23;20026;-77
2023/10/25 04:40:43;;;;;;;21.10;10.40;;;;;;;6.52;100.00;100142.81;6141926;23;20025;-77
2023/10/25 04:43:08;;;;;;;18.75;10.15;;;;;;;6.45;100.00;100144.09;6144399;23;20017;-76
2023/10/25 04:45:34;;;;;;;20.63;10.02;;;;;;;6.39;100.00;100143.25;6143677;23;20013;-76
2023/10/25 04:48:00;;;;;;;17.15;10.10;;;;;;;6.35;100.00;100141.34;6143258;23;20018;-77
2023/10/25 04:50:26;;;;;;;18.20;9.40;;;;;;;6.29;100.00;100138.66;6143677;23;20451;-78
2023/10/25 04:52:51;;;;;;;15.43;9.00;;;;;;;6.25;100.00;100140.22;6117988;23;20013;-76
2023/10/25 04:55:17;;;;;;;12.93;7.82;;;;;;;6.21;100.00;100127.69;6142675;23;20345;-77
2023/10/25 04:57:43;;;;;;;17.33;8.73;;;;;;;6.16;100.00;100131.09;6094220;23;20021;-77
2023/10/25 05:00:12;;;;;;;13.50;7.75;;;;;;;6.10;100.00;100126.84;6143283;23;20021;-74
2023/10/25 05:02:38;;;;;;;39.45;8.20;;;;;;;6.05;100.00;100129.44;6143141;23;20022;-77
2023/10/25 05:05:07;;;;;;;18.02;7.65;;;;;;;5.97;100.00;100121.94;6143173;23;20032;-76
2023/10/25 05:07:37;;;;;;;16.33;7.88;;;;;;;5.94;100.00;100125.91;6141490;23;20017;-78
2023/10/25 05:10:05;;;;;;;13.30;7.80;;;;;;;5.88;100.00;100124.22;6141835;23;20021;-77
2023/10/25 05:12:37;;;;;;;12.90;7.70;;;;;;;5.85;100.00;100119.41;6143279;23;20088;-78
2023/10/25 05:15:06;;;;;;;12.07;7.10;;;;;;;5.83;100.00;100134.03;6068457;23;20448;-77
2023/10/25 05:17:31;;;;;;;10.95;7.32;;;;;;;5.77;100.00;100127.06;6094842;23;20739;-75
2023/10/25 05:19:57;;;;;;;11.75;7.55;;;;;;;5.75;100.00;100125.44;6094061;23;20540;-77
2023/10/25 05:22:29;;;;;;;10.35;6.82;;;;;;;5.72;100.00;100120.63;6071433;23;20025;-76
2023/10/25 05:24:55;;;;;;;12.85;7.97;;;;;;;5.66;100.00;100126.97;6096707;23;20384;-76
2023/10/25 05:27:21;;;;;;;13.75;8.25;;;;;;;5.65;100.00;100127.22;6095279;23;20095;-76
2023/10/25 05:29:46;;;;;;;18.85;8.32;;;;;;;5.63;100.00;100127.47;6093654;23;20009;-77
2023/10/25 05:32:17;;;;;;;12.88;7.93;;;;;;;5.61;100.00;100126.09;6120054;23;20036;-75
2023/10/25 05:34:43;;;;;;;13.57;7.85;;;;;;;5.60;100.00;100122.66;6096674;23;20021;-75
2023/10/25 05:37:09;;;;;;;12.73;7.15;;;;;;;5.58;100.00;100129.28;6095833;23;20021;-76
2023/10/25 05:39:35;;;;;;;13.45;7.30;;;;;;;5.55;100.00;100133.22;6120938;23;20044;-76
2023/10/25 05:42:04;;;;;;;35.78;8.55;;;;;;;5.53;100.00;100130.00;6119645;23;20047;-76
2023/10/25 05:44:31;;;;;;;13.65;8.05;;;;;;;5.51;100.00;100137.44;6120580;23;20047;-74
2023/10/25 05:46:57;;;;;;;12.98;7.63;;;;;;;5.47;100.00;100129.16;6119211;23;20013;-75
2023/10/25 05:49:23;;;;;;;13.55;7.75;;;;;;;5.47;100.00;100131.00;6120888;23;20348;-76
2023/10/25 05:51:49;;;;;;;12.98;8.00;;;;;;;5.47;100.00;100138.97;6119109;23;20016;-75
2023/10/25 05:54:15;;;;;;;16.48;7.47;;;;;;;5.45;100.00;100138.44;6121075;23;20420;-76
2023/10/25 05:56:41;;;;;;;15.80;7.60;;;;;;;5.43;100.00;100144.00;6094729;23;20129;-78
2023/10/25 05:59:07;;;;;;;;;;;;;;;5.40;100.00;100149.81;6120726;23;20025;-77
2023/10/25 06:01:50;;;;;;;12.73;7.45;;;;;;;5.38;100.00;100146.59;6120487;23;19987;-77
2023/10/25 06:04:18;;;;;;;13.32;8.00;;;;;;;5.35;100.00;100141.81;6096873;23;20009;-77
2023/10/25 06:06:45;;;;;;;13.52;7.88;;;;;;;5.34;100.00;100145.47;6119789;23;20009;-76
2023/10/25 06:09:12;;;;;;;14.95;8.20;;;;;;;5.32;100.00;100142.28;6146159;23;20393;-76
2023/10/25 06:11:41;;;;;;;21.85;8.23;;;;;;;5.32;100.00;100141.50;6096015;23;20013;-76
2023/10/25 06:14:08;;;;;;;19.45;7.22;;;;;;;5.31;100.00;100148.66;6083518;23;20468;-79
2023/10/25 06:16:35;;;;;;;13.65;7.25;;;;;;;5.29;100.00;100142.00;6068256;23;20014;-81
2023/10/25 06:19:01;;;;;;;12.48;7.53;;;;;;;5.28;100.00;100148.34;6091615;23;20452;-79
2023/10/25 06:21:29;;;;;;;17.55;8.32;;;;;;;5.24;100.00;100147.25;6087480;23;20026;-79
2023/10/25 06:23:55;;;;;;;17.40;8.73;;;;;;;5.25;100.00;100156.81;6063932;23;20045;-79
2023/10/25 06:26:24;;;;;;;21.70;7.85;;;;;;;5.24;100.00;100149.91;6063401;23;20018;-79
2023/10/25 06:28:50;;;;;;;17.23;7.68;;;;;;;5.25;100.00;100162.91;6016565;23;20021;-78
2023/10/25 06:31:16;;;;;;;21.45;7.05;;;;;;;5.22;100.00;100162.63;6061558;23;20707;-77
2023/10/25 06:33:42;;;;;;;52.53;8.15;;;;;;;5.22;100.00;100152.00;6017231;23;20030;-79
2023/10/25 06:36:09;;;;;;;21.75;7.05;;;;;;;5.23;100.00;100154.41;6039481;23;20022;-79
2023/10/25 06:38:36;;;;;;;10.50;7.10;;;;;;;5.26;100.00;100153.09;6063810;23;20018;-79
2023/10/25 06:41:14;;;;;;;16.42;7.13;;;;;;;5.27;100.00;100149.38;6086534;23;20010;-77
2023/10/25 06:43:40;;;;;;;28.85;7.93;;;;;;;5.27;100.00;100152.84;6039821;23;20018;-77
2023/10/25 06:46:08;;;;;;;;;;;;;;;5.29;100.00;100150.75;6063212;23;20524;-79
2023/10/25 06:48:34;;;;;;;19.27;7.47;;;;;;;5.31;100.00;100156.63;6040053;23;19989;-78
2023/10/25 06:51:04;;;;;;;15.40;8.02;;;;;;;5.33;100.00;100149.19;6038758;23;20006;-78
2023/10/25 06:53:31;;;;;;;16.33;8.95;;;;;;;5.34;100.00;100144.69;6088056;23;20022;-78
2023/10/25 06:55:59;;;;;;;16.95;7.88;;;;;;;5.39;100.00;100153.50;6062205;23;20503;-79
2023/10/25 06:58:25;;;;;;;15.13;8.20;;;;;;;5.41;100.00;100147.94;6063083;23;20372;-78
2023/10/25 07:00:55;;;;;;;21.45;11.10;;;;;;;5.46;100.00;100142.69;6063438;23;20015;-79
2023/10/25 07:03:45;;;;;;;21.45;10.63;;;;;;;5.49;100.00;100142.22;6041966;23;20019;-78
2023/10/25 07:06:16;;;;;;;23.05;12.70;;;;;;;5.56;100.00;100139.34;6042466;23;20398;-72
2023/10/25 07:08:42;;;;;;;22.73;12.05;;;;;;;5.64;100.00;100139.69;6043824;23;20034;-77
2023/10/25 07:11:08;;;;;;;23.70;11.10;;;;;;;5.73;100.00;100132.88;6019600;23;20042;-72
2023/10/25 07:13:35;;;;;;;26.80;11.60;;;;;;;5.81;100.00;100138.78;6062296;23;20010;-80
2023/10/25 07:16:19;;;;;;;;;;;;;;;5.85;100.00;100126.59;6041808;23;20041;-76
2023/10/25 07:18:46;;;;;;;21.33;9.35;;;;;;;5.91;100.00;100129.06;6061275;23;20399;-73
2023/10/25 07:21:12;;;;;;;23.90;10.68;;;;;;;6.00;100.00;100126.75;6060023;23;20022;-77
2023/10/25 07:23:39;;;;;;;26.08;11.88;;;;;;;6.13;100.00;100131.63;6084326;23;20468;-76
2023/10/25 07:26:05;;;;;;;24.95;11.02;;;;;;;6.18;100.00;100130.88;6035864;23;20026;-76
2023/10/25 07:28:30;;;;;;;20.83;9.90;;;;;;;6.24;100.00;100133.31;6058705;23;20118;-79
2023/10/25 07:30:56;;;;;;;26.75;11.38;;;;;;;6.30;100.00;100144.78;6033744;23;20782;-79
2023/10/25 07:33:24;;;;;;;30.80;12.82;;;;;;;6.39;100.00;100139.78;6010260;23;20015;-79
2023/10/25 07:35:50;;;;;;;26.40;11.55;;;;;;;6.53;100.00;100132.97;6058303;23;20029;-79
2023/10/25 07:38:16;;;;;;;28.17;13.70;;;;;;;6.65;100.00;100138.88;6034621;23;20469;-79
2023/10/25 07:40:42;;;;;;;28.92;13.55;;;;;;;6.75;100.00;100133.59;6057885;23;20011;-80
2023/10/25 07:43:08;;;;;;;26.88;11.95;;;;;;;6.87;100.00;100137.91;6035356;23;20019;-79
2023/10/25 07:45:33;;;;;;;31.75;13.15;;;;;;;6.91;100.00;100136.31;6035406;23;20104;-78
2023/10/25 07:47:59;;;;;;;25.85;11.32;;;;;;;6.96;100.00;100133.69;6035583;23;20053;-80
2023/10/25 07:50:25;;;;;;;26.13;11.43;;;;;;;7.05;100.00;100138.28;6034639;23;20011;-78
2023/10/25 07:52:51;;;;;;;26.27;13.38;;;;;;;7.11;100.00;100133.75;6008791;23;20089;-77
2023/10/25 07:55:17;;;;;;;28.45;12.02;;;;;;;7.17;100.00;100135.38;6034989;23;20721;-77
2023/10/25 07:57:43;;;;;;;21.45;11.30;;;;;;;7.28;100.00;100139.66;6058840;23;20043;-79
2023/10/25 08:00:09;;;;;;;22.33;11.82;;;;;;;7.35;100.00;100137.56;6081873;23;20730;-77
2023/10/25 08:02:38;;;;;;;20.38;10.35;;;;;;;7.44;100.00;100134.38;6058785;23;20038;-78
2023/10/25 08:05:04;;;;;;;22.63;11.02;;;;;;;7.52;100.00;100136.50;6083803;23;20091;-77
2023/10/25 08:07:31;;;;;;;22.23;11.43;;;;;;;7.64;100.00;100139.75;6059360;23;20026;-78
2023/10/25 08:09:57;;;;;;;22.60;10.85;;;;;;;7.72;100.00;100136.53;6035603;23;20101;-79
2023/10/25 08:12:23;;;;;;;21.90;11.38;;;;;;;7.83;100.00;100140.81;6009472;23;20091;-77
2023/10/25 08:14:49;;;;;;;16.83;9.55;;;;;;;7.89;100.00;100131.78;6034028;23;20046;-77
2023/10/25 08:17:15;;;;;;;17.55;9.88;;;;;;;7.99;100.00;100144.28;6079629;23;20015;-78
2023/10/25 08:19:41;;;;;;;18.92;9.57;;;;;;;8.09;100.00;100140.84;6033289;23;20101;-78
2023/10/25 08:22:08;;;;;;;17.75;9.95;;;;;;;8.15;100.00;100142.44;6033834;23;20018;-79
2023/10/25 08:24:34;;;;;;;17.02;9.63;;;;;;;8.20;100.00;100131.78;6058507;23;20014;-79
2023/10/25 08:26:59;;;;;;;18.60;8.93;;;;;;;8.25;100.00;100139.75;6009496;23;20018;-79
2023/10/25 08:29:25;;;;;;;17.58;9.77;;;;;;;8.34;100.00;100146.16;6034602;23;20006;-79
2023/10/25 08:31:52;;;;;;;18.42;9.82;;;;;;;8.40;100.00;100142.44;6057259;23;20026;-78
2023/10/25 08:34:18;;;;;;;19.95;9.40;;;;;;;8.40;100.00;100144.28;6056705;23;20054;-78
2023/10/25 08:36:44;;;;;;;15.27;8.88;;;;;;;8.51;100.00;100143.22;6057358;23;20015;-75
2023/10/25 08:39:10;;;;;;;18.10;10.82;;;;;;;8.52;100.00;100144.00;6058231;23;20078;-75
2023/10/25 08:41:38;;;;;;;15.70;8.75;;;;;;;8.60;100.00;100133.59;6058663;23;20026;-80
2023/10/25 08:44:05;;;;;;;14.60;8.55;;;;;;;8.66;100.00;100139.69;6058139;23;20466;-77
2023/10/25 08:46:31;;;;;;;16.20;8.18;;;;;;;8.76;100.00;100139.69;6035035;23;20529;-78
2023/10/25 08:48:57;;;;;;;13.55;8.38;;;;;;;8.85;100.00;100143.38;6035181;23;20014;-76
2023/10/25 08:51:24;;;;;;;16.02;8.55;;;;;;;8.92;100.00;100132.41;6010698;23;20014;-78
2023/10/25 08:53:52;;;;;;;18.20;9.43;;;;;;;8.94;100.00;100136.44;6034281;23;20485;-79
2023/10/25 08:56:18;;;;;;;13.38;8.10;;;;;;;9.09;100.00;100143.56;6033846;23;20043;-79
2023/10/25 08:58:44;;;;;;;;;;;;;;;9.13;100.00;100133.13;6012692;23;20026;-79
2023/10/25 09:01:09;;;;;;;13.45;7.45;;;;;;;9.19;100.00;100135.50;6034928;23;20260;-79
2023/10/25 09:03:40;;;;;;;12.38;7.80;;;;;;;9.27;100.00;100144.81;6061319;23;20461;-80
2023/10/25 09:06:07;;;;;;;14.18;8.60;;;;;;;9.39;100.00;100144.50;6011568;23;20022;-79
2023/10/25 09:08:35;;;;;;;12.80;8.00;;;;;;;9.38;100.00;100133.00;6060749;23;20018;-81
2023/10/25 09:11:03;;;;;;;15.73;7.88;;;;;;;9.48;100.00;100132.97;6012232;23;20102;-78
2023/10/25 09:13:30;;;;;;;13.88;8.48;;;;;;;9.59;100.00;100133.66;6082185;23;20452;-76
2023/10/25 09:16:13;;;;;;;13.63;7.85;;;;;;;9.64;100.00;100132.84;6035242;23;20019;-75
2023/10/25 09:18:40;;;;;;;12.75;6.90;;;;;;;9.62;100.00;100125.13;6011971;23;20015;-79
2023/10/25 09:21:07;;;;;;;16.20;7.90;;;;;;;9.74;100.00;100127.41;6034801;23;20657;-77
2023/10/25 09:23:33;;;;;;;11.63;6.40;;;;;;;9.81;100.00;100112.66;5987573;23;20042;-78
2023/10/25 09:26:04;;;;;;;12.63;7.35;;;;;;;9.87;100.00;100116.09;6058269;23;20018;-79
2023/10/25 09:28:30;;;;;;;14.75;6.43;;;;;;;9.92;100.00;100121.41;6035339;23;20354;-78
2023/10/25 09:31:00;;;;;;;13.77;7.50;;;;;;;9.95;100.00;100115.47;5988048;23;20007;-78
2023/10/25 09:33:32;;;;;;;11.32;6.72;;;;;;;10.03;100.00;100122.13;6035125;23;20046;-80
2023/10/25 09:35:58;;;;;;;12.27;5.65;;;;;;;10.15;100.00;100116.38;6010463;23;20563;-77
2023/10/25 09:38:24;;;;;;;;;;;;;;;10.21;100.00;100104.56;6059760;23;20037;-75
2023/10/25 09:40:51;;;;;;;9.00;5.60;;;;;;;10.25;100.00;100102.97;6012561;23;20384;-78
2023/10/25 09:43:21;;;;;;;8.98;5.88;;;;;;;10.36;100.00;100096.41;6010810;23;20457;-79
2023/10/25 09:45:54;;;;;;;10.02;5.18;;;;;;;10.44;100.00;100092.34;6011263;23;20082;-79
2023/10/25 09:48:21;;;;;;;9.55;4.65;;;;;;;10.49;100.00;100095.72;5988407;23;20018;-79
2023/10/25 09:51:15;;;;;;;7.55;4.75;;;;;;;10.52;100.00;100084.47;6033444;23;20015;-77
2023/10/25 09:53:49;;;;;;;12.18;4.20;;;;;;;10.54;100.00;100090.31;5989320;23;20025;-78
2023/10/25 09:56:16;;;;;;;9.20;4.50;;;;;;;10.50;100.00;100083.97;6035285;23;20007;-79
2023/10/25 09:58:44;;;;;;;7.82;3.85;;;;;;;10.51;100.00;100082.88;6035634;23;20414;-79
2023/10/25 10:01:10;;;;;;;7.57;4.22;;;;;;;10.50;100.00;100081.28;6034860;23;20074;-77
2023/10/25 10:03:46;;;;;;;8.73;4.47;;;;;;;10.46;100.00;100080.25;5988579;23;20394;-77
2023/10/25 10:06:30;;;;;;;5.10;3.63;;;;;;;10.48;100.00;100082.63;6034301;23;20462;-77
2023/10/25 10:09:19;;;;;;;8.48;4.07;;;;;;;10.49;100.00;100074.31;6036118;23;20093;-83
2023/10/25 10:11:51;;;;;;;5.38;3.53;;;;;;;10.50;100.00;100075.94;5988406;23;20053;-78
2023/10/25 10:14:37;;;;;;;;;;;;;;;10.50;100.00;100072.44;5987498;23;20019;-79
2023/10/25 10:17:05;;;;;;;6.57;3.45;;;;;;;10.54;100.00;100076.94;6009949;23;19913;-77
2023/10/25 10:19:32;;;;;;;7.07;4.57;;;;;;;10.63;100.00;100069.88;5988079;23;20019;-78
2023/10/25 10:22:16;;;;;;;9.95;4.20;;;;;;;10.70;100.00;100063.38;6034651;23;20055;-79
2023/10/25 10:25:08;;;;;;;9.90;4.35;;;;;;;10.78;100.00;100065.44;6035539;23;20082;-76
2023/10/25 10:27:40;;;;;;;10.50;4.90;;;;;;;10.91;100.00;100062.06;6031207;23;20461;-75
2023/10/25 10:30:29;;;;;;;8.85;5.43;;;;;;;10.94;100.00;100059.56;6034195;23;20007;-79
2023/10/25 10:32:56;;;;;;;8.63;4.90;;;;;;;11.01;100.00;100050.38;6058147;23;20054;-78
2023/10/25 10:35:22;;;;;;;13.00;5.22;;;;;;;11.08;100.00;100048.94;6033917;23;20616;-78
2023/10/25 10:37:55;;;;;;;7.90;5.05;;;;;;;11.08;100.00;100042.78;6035491;23;20046;-79
2023/10/25 10:40:21;;;;;;;8.02;5.07;;;;;;;11.08;100.00;100051.63;5986845;23;20022;-78
2023/10/25 10:42:47;;;;;;;11.95;5.07;;;;;;;11.11;100.00;100036.88;6010978;23;20488;-78
2023/10/25 10:45:21;;;;;;;8.38;5.32;;;;;;;11.15;100.00;100038.66;6011509;23;20101;-75
2023/10/25 10:48:02;;;;;;;8.38;4.38;;;;;;;11.14;100.00;100025.56;6035152;23;20022;-76
2023/10/25 10:50:28;;;;;;;7.45;5.43;;;;;;;11.15;100.00;100027.94;6032178;23;20070;-78
2023/10/25 10:52:54;;;;;;;8.20;5.03;;;;;;;11.17;100.00;100019.59;6011451;23;20086;-76
2023/10/25 10:55:24;;;;;;;10.50;5.30;;;;;;;11.16;100.00;100015.31;6010423;23;20022;-79
2023/10/25 10:57:51;;;;;;;7.88;4.38;;;;;;;11.21;100.00;100015.25;6011097;23;20015;-75
2023/10/25 11:00:18;;;;;;;10.20;5.63;;;;;;;11.29;100.00;100021.84;6009033;23;20161;-76
2023/10/25 11:02:45;;;;;;;11.00;5.25;;;;;;;11.33;100.00;100009.47;6035810;23;20019;-77
2023/10/25 11:05:14;;;;;;;9.45;4.88;;;;;;;11.32;100.00;100005.97;6011859;23;20038;-78
2023/10/25 11:07:40;;;;;;;8.45;5.22;;;;;;;11.35;100.00;100005.38;5987891;23;20054;-78
2023/10/25 11:10:06;;;;;;;;;;;;;;;11.44;100.00;100002.81;6011166;23;20011;-79
2023/10/25 11:12:32;;;;;;;6.43;4.32;;;;;;;11.52;100.00;99996.03;6035862;23;19965;-79
2023/10/25 11:15:03;;;;;;;8.80;4.50;;;;;;;11.65;100.00;100004.09;6031352;23;20025;-79
2023/10/25 11:17:30;;;;;;;9.38;5.28;;;;;;;11.74;100.00;100010.38;6058384;23;20019;-77
2023/10/25 11:19:56;;;;;;;7.53;4.43;;;;;;;11.79;100.00;99997.97;6059083;23;20365;-78